createdAt,value
2023-06-13T00:00:13.853Z,64.60
2023-06-13T00:02:46.945Z,64.22
2023-06-13T00:05:23.789Z,63.51
2023-06-13T00:07:58.509Z,62.99
2023-06-13T00:10:39.870Z,62.59
2023-06-13T00:13:12.207Z,62.58
2023-06-13T00:16:00.251Z,62.78
2023-06-13T00:18:34.417Z,62.98
2023-06-13T00:21:06.269Z,62.54
2023-06-13T00:23:37.047Z,62.81
2023-06-13T00:26:09.499Z,63.31
2023-06-13T00:28:41.908Z,63.06
2023-06-13T00:31:15.233Z,63.36
2023-06-13T00:33:55.988Z,63.55
2023-06-13T00:36:32.363Z,63.72
2023-06-13T00:39:04.095Z,63.82
2023-06-13T00:41:37.553Z,63.98
2023-06-13T00:44:09.504Z,63.85
2023-06-13T00:46:41.715Z,64.26
2023-06-13T00:49:19.718Z,63.86
2023-06-13T00:51:52.934Z,64.07
2023-06-13T00:54:26.943Z,63.96
2023-06-13T00:56:58.088Z,64.11
2023-06-13T00:59:30.968Z,64.32
2023-06-13T01:02:07.668Z,64.28
2023-06-13T01:04:41.918Z,64.69
2023-06-13T01:07:17.205Z,64.92
2023-06-13T01:09:52.704Z,64.91
2023-06-13T01:12:39.925Z,65.32
2023-06-13T01:15:13.886Z,65.31
2023-06-13T01:18:04.774Z,64.98
2023-06-13T01:20:38.422Z,64.81
2023-06-13T01:23:18.178Z,65.03
2023-06-13T01:26:19.449Z,65.03
2023-06-13T01:28:54.601Z,64.62
2023-06-13T01:31:27.886Z,64.35
2023-06-13T01:33:59.936Z,64.54
2023-06-13T01:36:32.280Z,64.30
2023-06-13T01:39:03.032Z,64.33
2023-06-13T01:41:34.650Z,64.36
2023-06-13T01:44:08.016Z,64.67
2023-06-13T01:47:09.917Z,65.20
2023-06-13T01:49:46.512Z,65.04
2023-06-13T01:52:35.921Z,65.50
2023-06-13T01:55:13.318Z,65.45
2023-06-13T01:57:56.002Z,65.73
2023-06-13T02:00:28.676Z,66.19
2023-06-13T02:03:01.054Z,66.59
2023-06-13T02:05:33.004Z,66.91
2023-06-13T02:08:04.864Z,66.96
2023-06-13T02:10:40.765Z,67.10
2023-06-13T02:13:14.845Z,67.07
2023-06-13T02:15:46.627Z,66.61
2023-06-13T02:18:18.712Z,67.08
2023-06-13T02:20:56.474Z,67.16
2023-06-13T02:23:29.856Z,67.31
2023-06-13T02:26:03.602Z,67.39
2023-06-13T02:28:35.952Z,67.56
2023-06-13T02:31:08.008Z,67.66
2023-06-13T02:33:41.466Z,67.92
2023-06-13T02:36:12.890Z,67.79
2023-06-13T02:38:48.403Z,68.14
2023-06-13T02:41:19.005Z,68.00
2023-06-13T02:43:49.469Z,68.18
2023-06-13T02:46:20.760Z,68.28
2023-06-13T02:48:51.317Z,68.19
2023-06-13T02:51:24.994Z,68.24
2023-06-13T02:54:00.275Z,68.32
2023-06-13T02:56:31.724Z,68.15
2023-06-13T02:59:02.666Z,68.31
2023-06-13T03:01:33.033Z,68.29
2023-06-13T03:04:09.013Z,68.34
2023-06-13T03:06:43.545Z,68.16
2023-06-13T03:09:14.919Z,68.26
2023-06-13T03:11:46.234Z,68.12
2023-06-13T03:14:19.345Z,68.05
2023-06-13T03:16:50.878Z,68.23
2023-06-13T03:19:21.786Z,68.08
2023-06-13T03:21:51.933Z,68.15
2023-06-13T03:24:22.872Z,68.18
2023-06-13T03:26:54.112Z,68.26
2023-06-13T03:29:25.657Z,68.32
2023-06-13T03:31:56.936Z,68.51
2023-06-13T03:34:29.579Z,68.44
2023-06-13T03:37:06.551Z,68.78
2023-06-13T03:39:39.020Z,68.76
2023-06-13T03:42:10.907Z,68.98
2023-06-13T03:44:41.414Z,69.13
2023-06-13T03:47:12.367Z,69.39
2023-06-13T03:49:43.925Z,69.85
2023-06-13T03:52:16.357Z,70.14
2023-06-13T03:54:48.006Z,70.13
2023-06-13T03:57:19.020Z,70.16
2023-06-13T03:59:50.855Z,69.80
2023-06-13T04:02:22.416Z,69.64
2023-06-13T04:04:55.373Z,69.37
2023-06-13T04:07:26.916Z,69.15
2023-06-13T04:09:58.660Z,69.02
2023-06-13T04:12:28.916Z,69.32
2023-06-13T04:15:00.419Z,69.50
2023-06-13T04:17:31.375Z,69.74
2023-06-13T04:20:03.643Z,69.62
2023-06-13T04:22:35.896Z,69.88
2023-06-13T04:25:07.943Z,70.00
2023-06-13T04:27:39.628Z,70.51
2023-06-13T04:30:13.531Z,70.61
2023-06-13T04:32:49.687Z,70.78
2023-06-13T04:35:25.439Z,71.02
2023-06-13T04:37:57.002Z,71.22
2023-06-13T04:40:34.720Z,71.35
2023-06-13T04:43:07.180Z,71.53
2023-06-13T04:45:39.417Z,71.47
2023-06-13T04:48:12.174Z,71.59
2023-06-13T04:50:47.429Z,71.37
2023-06-13T04:53:19.472Z,71.56
2023-06-13T04:55:52.460Z,71.65
2023-06-13T04:58:23.752Z,71.62
2023-06-13T05:00:56.476Z,71.75
2023-06-13T05:03:29.070Z,71.64
2023-06-13T05:05:59.531Z,71.37
2023-06-13T05:08:33.675Z,71.02
2023-06-13T05:11:05.363Z,70.99
2023-06-13T05:13:35.623Z,71.00
2023-06-13T05:16:05.985Z,70.79
2023-06-13T05:18:37.979Z,70.97
2023-06-13T05:21:09.206Z,71.18
2023-06-13T05:23:40.941Z,71.16
2023-06-13T05:26:11.218Z,71.21
2023-06-13T05:28:42.159Z,71.22
2023-06-13T05:31:14.120Z,71.22
2023-06-13T05:33:44.761Z,71.23
2023-06-13T05:36:17.682Z,71.19
2023-06-13T05:38:49.308Z,71.14
2023-06-13T05:41:20.581Z,71.33
2023-06-13T05:43:53.407Z,71.68
2023-06-13T05:46:23.733Z,71.68
2023-06-13T05:48:54.603Z,71.82
2023-06-13T05:51:26.948Z,72.03
2023-06-13T05:53:57.963Z,72.20
2023-06-13T05:56:29.238Z,72.00
2023-06-13T05:58:59.351Z,72.13
2023-06-13T06:01:33.146Z,71.42
2023-06-13T06:04:03.583Z,71.73
2023-06-13T06:06:36.050Z,71.77
2023-06-13T06:09:08.588Z,71.69
2023-06-13T06:11:40.116Z,71.67
2023-06-13T06:14:10.573Z,71.70
2023-06-13T06:16:41.442Z,71.34
2023-06-13T06:19:12.206Z,71.31
2023-06-13T06:21:45.678Z,71.54
2023-06-13T06:24:16.969Z,71.40
2023-06-13T06:26:48.595Z,71.50
2023-06-13T06:29:20.000Z,71.45
2023-06-13T06:31:51.193Z,71.34
2023-06-13T06:34:22.885Z,71.48
2023-06-13T06:36:54.736Z,71.53
2023-06-13T06:39:25.025Z,71.55
2023-06-13T06:41:56.709Z,71.50
2023-06-13T06:44:45.650Z,71.50
2023-06-13T06:47:16.381Z,71.55
2023-06-13T06:49:47.314Z,71.49
2023-06-13T06:52:19.502Z,71.47
2023-06-13T06:54:50.006Z,71.41
2023-06-13T06:57:22.998Z,71.21
2023-06-13T06:59:53.870Z,71.27
2023-06-13T07:02:24.776Z,70.97
2023-06-13T07:04:54.916Z,71.06
2023-06-13T07:07:24.511Z,70.91
2023-06-13T07:09:54.613Z,71.09
2023-06-13T07:12:24.903Z,71.04
2023-06-13T07:14:56.681Z,71.12
2023-06-13T07:17:28.464Z,71.23
2023-06-13T07:20:00.832Z,71.19
2023-06-13T07:22:31.284Z,71.30
2023-06-13T07:25:01.755Z,71.11
2023-06-13T07:27:33.264Z,71.33
2023-06-13T07:30:03.865Z,71.47
2023-06-13T07:32:35.737Z,71.54
2023-06-13T07:35:07.764Z,71.67
2023-06-13T07:37:40.000Z,71.44
2023-06-13T07:40:10.859Z,71.23
2023-06-13T07:42:42.028Z,71.00
2023-06-13T07:45:12.370Z,70.80
2023-06-13T07:47:43.293Z,70.64
2023-06-13T07:50:15.124Z,70.71
2023-06-13T07:52:45.643Z,70.68
2023-06-13T07:55:15.687Z,70.57
2023-06-13T07:57:59.160Z,70.43
2023-06-13T08:00:31.081Z,70.36
2023-06-13T08:03:01.241Z,70.08
2023-06-13T08:05:32.475Z,69.98
2023-06-13T08:08:04.558Z,69.98
2023-06-13T08:10:36.744Z,70.04
2023-06-13T08:13:07.178Z,69.94
2023-06-13T08:15:40.740Z,70.03
2023-06-13T08:18:14.773Z,69.97
2023-06-13T08:20:45.777Z,70.00
2023-06-13T08:23:18.813Z,69.84
2023-06-13T08:25:50.495Z,69.90
2023-06-13T08:28:22.250Z,69.75
2023-06-13T08:31:00.434Z,69.69
2023-06-13T08:33:39.182Z,69.77
2023-06-13T08:36:23.326Z,69.73
2023-06-13T08:39:03.432Z,69.76
2023-06-13T08:41:35.705Z,69.86
2023-06-13T08:44:06.765Z,69.74
2023-06-13T08:46:40.702Z,69.78
2023-06-13T08:49:12.842Z,69.82
2023-06-13T08:51:48.701Z,69.95
2023-06-13T08:54:21.452Z,70.05
2023-06-13T08:56:56.999Z,70.16
2023-06-13T08:59:33.436Z,70.39
2023-06-13T09:02:04.933Z,70.51
2023-06-13T09:04:37.113Z,70.56
2023-06-13T09:07:09.188Z,70.66
2023-06-13T09:09:42.658Z,70.71
2023-06-13T09:12:16.947Z,70.78
2023-06-13T09:14:49.165Z,70.65
2023-06-13T09:17:19.854Z,70.70
2023-06-13T09:19:51.751Z,70.76
2023-06-13T09:22:22.082Z,70.89
2023-06-13T09:24:52.991Z,71.01
2023-06-13T09:27:25.611Z,70.97
2023-06-13T09:29:57.107Z,70.95
2023-06-13T09:32:29.354Z,70.93
2023-06-13T09:35:00.974Z,71.04
2023-06-13T09:37:33.057Z,71.14
2023-06-13T09:43:04.892Z,71.11
2023-06-13T09:45:36.895Z,71.34
2023-06-13T09:48:09.564Z,71.06
2023-06-13T09:50:44.227Z,71.09
2023-06-13T10:13:48.642Z,71.72
2023-06-13T10:16:20.309Z,71.64
2023-06-13T10:18:56.892Z,71.63
2023-06-13T10:21:31.885Z,71.62
2023-06-13T10:24:12.679Z,71.50
2023-06-13T10:26:44.679Z,71.53
2023-06-13T10:29:38.973Z,71.65
2023-06-13T10:32:30.483Z,71.65
2023-06-13T10:35:27.778Z,71.44
2023-06-13T10:38:03.511Z,71.24
2023-06-13T10:40:54.316Z,71.10
2023-06-13T10:43:57.986Z,70.80
2023-06-13T10:46:31.111Z,70.75
2023-06-13T10:49:05.102Z,70.68
2023-06-13T10:51:36.646Z,70.59
2023-06-13T10:54:07.851Z,70.45
2023-06-13T10:56:42.547Z,70.29
2023-06-13T10:59:17.472Z,70.26
2023-06-13T11:01:48.735Z,70.15
2023-06-13T11:04:23.416Z,69.41
2023-06-13T11:06:56.762Z,68.90
2023-06-13T11:09:28.725Z,63.96
2023-06-13T11:12:02.704Z,66.11
2023-06-13T11:14:41.000Z,66.13
2023-06-13T11:17:10.989Z,66.21
2023-06-13T11:19:43.415Z,65.80
2023-06-13T11:22:16.113Z,64.99
2023-06-13T11:24:48.274Z,63.55
2023-06-13T11:27:20.506Z,60.47
2023-06-13T11:29:51.585Z,62.54
2023-06-13T11:32:23.922Z,63.98
2023-06-13T11:34:59.198Z,65.06
2023-06-13T11:37:48.497Z,64.54
2023-06-13T11:40:29.707Z,63.98
2023-06-13T11:43:00.711Z,63.16
2023-06-13T11:45:30.832Z,62.64
2023-06-13T11:48:05.074Z,62.28
2023-06-13T11:50:35.876Z,62.16
2023-06-13T11:53:12.368Z,61.02
2023-06-13T11:55:42.299Z,61.80
2023-06-13T11:58:14.536Z,60.70
2023-06-13T12:00:59.199Z,59.67
2023-06-13T12:03:32.878Z,59.35
2023-06-13T12:06:04.026Z,59.65
2023-06-13T12:08:38.098Z,59.10
2023-06-13T12:11:23.919Z,59.26
2023-06-13T12:14:01.583Z,58.34
2023-06-13T12:16:38.490Z,58.13
2023-06-13T12:19:12.896Z,58.61
2023-06-13T12:21:47.649Z,58.03
2023-06-13T12:24:31.300Z,56.82
2023-06-13T12:27:09.003Z,57.07
2023-06-13T12:29:43.688Z,56.15
2023-06-13T12:32:17.322Z,56.43
2023-06-13T12:34:49.580Z,56.26
2023-06-13T12:37:20.848Z,55.73
2023-06-13T12:40:12.169Z,55.99
2023-06-13T12:42:48.871Z,56.41
2023-06-13T12:45:23.436Z,56.74
2023-06-13T12:48:00.527Z,57.05
2023-06-13T12:50:40.585Z,57.16
2023-06-13T12:53:12.530Z,56.44
2023-06-13T12:55:47.265Z,55.57
2023-06-13T12:58:39.471Z,56.66
2023-06-13T13:01:14.144Z,55.90
2023-06-13T13:03:48.118Z,55.79
2023-06-13T13:06:19.376Z,55.72
2023-06-13T13:08:51.251Z,55.79
2023-06-13T13:11:21.550Z,56.44
2023-06-13T13:13:55.691Z,55.75
2023-06-13T13:16:32.152Z,55.87
2023-06-13T13:19:03.715Z,54.58
2023-06-13T13:21:37.331Z,55.57
2023-06-13T13:24:08.934Z,54.38
2023-06-13T13:26:41.897Z,54.62
2023-06-13T13:29:13.158Z,54.42
2023-06-13T13:31:43.654Z,53.33
2023-06-13T13:34:22.858Z,53.95
2023-06-13T13:37:00.813Z,53.83
2023-06-13T13:39:32.179Z,53.96
2023-06-13T13:42:17.599Z,54.70
2023-06-13T13:44:57.451Z,53.46
2023-06-13T13:47:28.342Z,54.78
2023-06-13T13:50:03.599Z,53.92
2023-06-13T13:52:36.105Z,54.67
2023-06-13T13:55:07.665Z,53.40
2023-06-13T13:57:39.446Z,54.36
2023-06-13T14:00:12.927Z,55.71
2023-06-13T14:02:43.457Z,53.94
2023-06-13T14:05:14.796Z,54.07
2023-06-13T14:07:46.210Z,54.34
2023-06-13T14:10:17.288Z,53.05
2023-06-13T14:12:48.659Z,53.57
2023-06-13T14:15:20.068Z,54.42
2023-06-13T14:17:51.262Z,53.48
2023-06-13T14:20:23.555Z,53.18
2023-06-13T14:22:55.265Z,53.14
2023-06-13T14:25:27.464Z,52.96
2023-06-13T14:27:58.502Z,52.97
2023-06-13T14:30:29.926Z,53.82
2023-06-13T14:33:01.806Z,53.04
2023-06-13T14:35:32.916Z,54.09
2023-06-13T14:38:06.707Z,53.69
2023-06-13T14:40:40.675Z,53.85
2023-06-13T14:43:11.685Z,52.30
2023-06-13T14:45:46.814Z,52.90
2023-06-13T14:48:26.022Z,53.52
2023-06-13T14:50:57.086Z,52.69
2023-06-13T14:53:33.895Z,53.49
2023-06-13T14:56:06.607Z,54.06
2023-06-13T14:58:39.142Z,52.49
2023-06-13T15:01:09.877Z,52.76
2023-06-13T15:03:49.315Z,53.25
2023-06-13T15:06:21.836Z,53.73
2023-06-13T15:08:54.591Z,52.03
2023-06-13T15:11:26.216Z,53.42
2023-06-13T15:13:58.174Z,52.09
2023-06-13T15:16:33.906Z,53.60
2023-06-13T15:19:05.133Z,54.01
2023-06-13T15:21:36.657Z,52.86
2023-06-13T15:24:08.126Z,54.53
2023-06-13T15:26:38.938Z,52.33
2023-06-13T15:29:11.247Z,52.71
2023-06-13T15:31:41.925Z,54.56
2023-06-13T15:34:16.727Z,52.72
2023-06-13T15:36:48.874Z,51.86
2023-06-13T15:39:21.880Z,52.84
2023-06-13T15:41:53.071Z,52.60
2023-06-13T15:44:27.799Z,52.02
2023-06-13T15:47:00.822Z,52.35
2023-06-13T15:49:35.076Z,52.22
2023-06-13T15:52:07.173Z,52.66
2023-06-13T15:54:39.560Z,53.19
2023-06-13T15:57:11.719Z,52.59
2023-06-13T15:59:42.794Z,51.72
2023-06-13T16:02:15.925Z,52.76
2023-06-13T16:04:49.048Z,52.96
2023-06-13T16:07:24.667Z,51.36
2023-06-13T16:10:02.332Z,52.21
2023-06-13T16:12:33.463Z,51.78
2023-06-13T16:15:08.982Z,52.04
2023-06-13T16:17:50.985Z,52.65
2023-06-13T16:20:22.157Z,51.60
2023-06-13T16:22:53.884Z,53.01
2023-06-13T16:25:29.262Z,51.80
2023-06-13T16:28:00.218Z,51.14
2023-06-13T16:30:32.410Z,52.44
2023-06-13T16:33:04.228Z,52.60
2023-06-13T16:35:42.560Z,51.82
2023-06-13T16:38:28.607Z,53.14
2023-06-13T16:41:00.964Z,53.18
2023-06-13T16:43:33.686Z,54.45
2023-06-13T16:46:09.047Z,54.55
2023-06-13T16:48:40.100Z,54.54
2023-06-13T16:51:12.831Z,55.25
2023-06-13T16:53:44.828Z,54.41
2023-06-13T16:56:18.836Z,55.02
2023-06-13T16:58:49.391Z,54.65
2023-06-13T17:01:21.588Z,54.68
2023-06-13T17:03:53.130Z,54.75
2023-06-13T17:06:23.878Z,55.36
2023-06-13T17:08:55.150Z,55.95
2023-06-13T17:11:28.613Z,55.67
2023-06-13T17:14:01.327Z,56.21
2023-06-13T17:16:53.460Z,56.38
2023-06-13T17:19:27.430Z,56.73
2023-06-13T17:22:00.252Z,56.68
2023-06-13T17:24:35.744Z,56.18
2023-06-13T17:27:06.727Z,56.92
2023-06-13T17:29:37.696Z,57.05
2023-06-13T17:32:09.406Z,56.96
2023-06-13T17:34:40.386Z,57.47
2023-06-13T17:37:11.433Z,58.08
2023-06-13T17:39:42.592Z,57.89
2023-06-13T17:42:13.871Z,58.27
2023-06-13T17:44:44.333Z,58.11
2023-06-13T17:47:15.164Z,58.23
2023-06-13T17:52:37.357Z,58.40
2023-06-13T17:55:08.565Z,59.00
2023-06-13T17:57:40.386Z,59.17
2023-06-13T18:00:13.438Z,58.81
2023-06-13T18:02:44.963Z,59.01
2023-06-13T18:05:16.299Z,59.61
2023-06-13T18:07:47.585Z,59.78
2023-06-13T18:10:20.492Z,59.17
2023-06-13T18:12:52.018Z,60.24
2023-06-13T18:15:23.210Z,59.83
2023-06-13T18:17:57.433Z,60.22
2023-06-13T18:20:29.374Z,60.40
2023-06-13T18:23:00.618Z,60.64
2023-06-13T18:25:31.037Z,61.54
2023-06-13T18:28:02.302Z,61.12
2023-06-13T18:30:33.261Z,61.88
2023-06-13T18:33:04.309Z,61.90
2023-06-13T18:35:35.184Z,61.90
2023-06-13T18:38:08.143Z,61.34
2023-06-13T18:40:39.110Z,61.49
2023-06-13T18:43:10.292Z,61.43
2023-06-13T18:45:42.051Z,61.73
2023-06-13T18:48:14.058Z,61.75
2023-06-13T18:50:45.791Z,62.13
2023-06-13T18:53:16.201Z,62.17
2023-06-13T18:55:47.257Z,61.62
2023-06-13T18:58:20.878Z,61.99
2023-06-13T19:00:51.948Z,61.84
2023-06-13T19:03:24.439Z,61.99
2023-06-13T19:05:55.933Z,62.16
2023-06-13T19:08:28.839Z,62.53
2023-06-13T19:10:59.864Z,62.29
2023-06-13T19:13:31.072Z,62.23
2023-06-13T19:16:05.480Z,62.03
2023-06-13T19:18:36.628Z,62.51
2023-06-13T19:21:07.202Z,62.83
2023-06-13T19:23:40.653Z,62.95
2023-06-13T19:26:15.753Z,63.38
2023-06-13T19:28:52.654Z,63.29
2023-06-13T19:31:25.260Z,63.19
2023-06-13T19:33:57.737Z,63.41
2023-06-13T19:36:29.552Z,63.62
2023-06-13T19:39:01.424Z,63.45
2023-06-13T19:41:32.521Z,64.10
2023-06-13T19:44:03.904Z,64.03
2023-06-13T19:46:35.773Z,64.08
2023-06-13T19:49:06.835Z,64.42
2023-06-13T19:51:37.045Z,64.14
2023-06-13T19:54:08.516Z,64.52
2023-06-13T19:56:40.932Z,64.50
2023-06-13T19:59:13.455Z,64.44
2023-06-13T20:01:44.053Z,64.70
2023-06-13T20:04:40.738Z,64.93
2023-06-13T20:07:12.011Z,65.22
2023-06-13T20:09:43.401Z,65.59
2023-06-13T20:12:14.766Z,66.23
2023-06-13T20:14:45.864Z,66.49
2023-06-13T20:17:16.109Z,67.96
2023-06-13T20:19:47.942Z,69.60
2023-06-13T20:22:19.709Z,69.64
2023-06-13T20:24:51.215Z,70.58
2023-06-13T20:27:22.836Z,72.07
2023-06-13T20:29:54.248Z,72.19
2023-06-13T20:32:27.629Z,72.63
2023-06-13T20:34:59.231Z,72.97
2023-06-13T20:37:31.012Z,73.06
2023-06-13T20:40:05.208Z,73.34
2023-06-13T20:42:38.939Z,74.25
2023-06-13T20:45:14.203Z,74.54
2023-06-13T20:47:45.239Z,73.04
2023-06-13T20:50:16.042Z,74.45
2023-06-13T20:52:47.264Z,74.52
2023-06-13T20:55:18.505Z,74.83
2023-06-13T20:57:50.624Z,74.66
2023-06-13T21:00:25.425Z,74.87
2023-06-13T21:02:59.550Z,74.78
2023-06-13T21:05:31.152Z,75.06
2023-06-13T21:08:01.871Z,74.68
2023-06-13T21:10:32.609Z,75.25
2023-06-13T21:13:03.253Z,76.28
2023-06-13T21:15:36.450Z,77.04
2023-06-13T21:18:07.561Z,76.87
2023-06-13T21:20:38.048Z,77.58
2023-06-13T21:23:09.198Z,77.92
2023-06-13T21:25:40.323Z,78.15
2023-06-13T21:28:10.878Z,78.51
2023-06-13T21:30:41.386Z,79.06
2023-06-13T21:33:12.093Z,79.26
2023-06-13T21:35:45.315Z,79.26
2023-06-13T21:38:16.299Z,79.35
2023-06-13T21:40:46.978Z,79.83
2023-06-13T21:43:18.016Z,79.74
2023-06-13T21:45:49.147Z,80.03
2023-06-13T21:48:22.543Z,80.07
2023-06-13T21:50:55.351Z,80.08
2023-06-13T21:53:26.565Z,80.06
2023-06-13T21:55:57.242Z,80.25
2023-06-13T21:58:49.162Z,80.23
2023-06-13T22:01:21.758Z,80.56
2023-06-13T22:03:53.169Z,80.51
2023-06-13T22:06:26.023Z,80.49
2023-06-13T22:08:58.405Z,80.49
2023-06-13T22:11:31.893Z,80.68
2023-06-13T22:14:03.738Z,80.65
2023-06-13T22:16:35.508Z,81.04
2023-06-13T22:19:07.222Z,80.97
2023-06-13T22:21:43.408Z,81.11
2023-06-13T22:24:16.374Z,80.98
2023-06-13T22:26:49.195Z,81.11
2023-06-13T22:29:27.978Z,81.28
2023-06-13T22:31:59.526Z,81.05
2023-06-13T22:34:32.938Z,81.14
2023-06-13T22:37:04.435Z,81.03
2023-06-13T22:39:35.176Z,81.37
2023-06-13T22:42:13.835Z,81.26
2023-06-13T22:44:46.280Z,81.33
2023-06-13T22:47:25.601Z,81.47
2023-06-13T22:50:04.580Z,81.61
2023-06-13T22:52:35.463Z,81.78
2023-06-13T22:55:09.018Z,81.54
2023-06-13T22:57:44.239Z,81.72
2023-06-13T23:00:19.671Z,81.63
2023-06-13T23:02:52.454Z,81.15
2023-06-13T23:05:29.263Z,81.51
2023-06-13T23:08:03.761Z,81.56
2023-06-13T23:10:40.493Z,81.82
2023-06-13T23:13:17.158Z,82.01
2023-06-13T23:15:50.425Z,82.00
2023-06-13T23:18:24.260Z,82.02
2023-06-13T23:21:00.034Z,82.05
2023-06-13T23:23:31.013Z,81.99
2023-06-13T23:26:06.879Z,81.95
2023-06-13T23:28:39.433Z,81.51
2023-06-13T23:31:15.502Z,81.80
2023-06-13T23:33:48.451Z,81.90
2023-06-13T23:40:30.448Z,81.70
2023-06-13T23:43:03.424Z,81.21
2023-06-13T23:45:39.138Z,81.54
2023-06-13T23:48:15.542Z,81.92
2023-06-13T23:50:50.361Z,82.12
2023-06-13T23:53:21.879Z,82.11
2023-06-13T23:55:56.428Z,82.18
2023-06-13T23:58:30.113Z,82.27
